Time;durP1;ratioP1;P1;durP2;ratioP2;P2;SDS_P1;SDS_P2;PMS_P1;PMS_P2;Temp;Humidity;BMP_temperature;BMP_pressure;BME280_temperature;BME280_humidity;BME280_pressure;Samples;Min_cycle;Max_cycle;Signal;HPM_P1;HPM_P2
2022/10/01 00:00:50;;;;;;;4.95;3.80;;;11.90;99.90;;;;;;6209060;23;20020;-80
2022/10/01 00:03:17;;;;;;;4.25;3.50;;;11.90;99.90;;;;;;6163127;23;20020;-80
2022/10/01 00:05:43;;;;;;;5.72;4.45;;;11.90;99.90;;;;;;6211896;23;20016;-80
2022/10/01 00:08:09;;;;;;;5.22;4.35;;;11.90;99.90;;;;;;6162036;23;20032;-78
2022/10/01 00:10:37;;;;;;;6.25;4.80;;;11.90;99.90;;;;;;6186337;23;20020;-79
2022/10/01 00:13:03;;;;;;;6.72;4.90;;;11.80;99.90;;;;;;6186593;23;20486;-79
2022/10/01 00:15:28;;;;;;;9.07;5.20;;;11.80;99.90;;;;;;6162551;23;20814;-78
2022/10/01 00:17:54;;;;;;;7.97;5.05;;;11.80;99.90;;;;;;6187520;23;20117;-79
2022/10/01 00:20:20;;;;;;;7.38;5.20;;;11.80;99.90;;;;;;6160695;23;20354;-78
2022/10/01 00:22:46;;;;;;;6.60;4.75;;;11.80;99.90;;;;;;6211974;23;20024;-79
2022/10/01 00:25:12;;;;;;;5.72;5.13;;;11.70;99.90;;;;;;6138228;23;20093;-79
2022/10/01 00:27:38;;;;;;;6.95;4.97;;;11.70;99.90;;;;;;6186273;23;20012;-79
2022/10/01 00:30:05;;;;;;;8.25;5.63;;;11.70;99.90;;;;;;6213155;23;20344;-78
2022/10/01 00:32:32;;;;;;;7.10;5.93;;;11.70;99.90;;;;;;6212762;23;20023;-78
2022/10/01 00:34:59;;;;;;;6.50;5.63;;;11.70;99.90;;;;;;6213113;23;20056;-79
2022/10/01 00:37:25;;;;;;;8.48;5.38;;;11.70;99.90;;;;;;6162570;23;20438;-78
2022/10/01 00:39:51;;;;;;;8.80;5.63;;;11.70;99.90;;;;;;6212524;23;20039;-79
2022/10/01 00:42:23;;;;;;;6.80;5.85;;;11.70;99.90;;;;;;6186403;23;20035;-79
2022/10/01 00:44:50;;;;;;;8.60;6.65;;;11.70;99.90;;;;;;6213875;23;20043;-79
2022/10/01 00:47:22;;;;;;;8.35;6.30;;;11.70;99.90;;;;;;6187815;23;20016;-79
2022/10/01 00:49:50;;;;;;;8.98;6.50;;;11.60;99.90;;;;;;6211430;23;20020;-80
2022/10/01 00:52:23;;;;;;;8.00;7.20;;;11.60;99.90;;;;;;6211769;23;20020;-79
2022/10/01 00:55:01;;;;;;;9.27;6.65;;;11.60;99.90;;;;;;6212811;23;20023;-79
2022/10/01 00:57:28;;;;;;;8.95;6.05;;;11.60;99.90;;;;;;6185475;23;20016;-79
2022/10/01 00:59:57;;;;;;;6.85;6.03;;;11.60;99.90;;;;;;6185516;23;20020;-79
2022/10/01 01:02:23;;;;;;;9.68;6.07;;;11.60;99.90;;;;;;6186297;23;20138;-79
2022/10/01 01:04:49;;;;;;;5.82;5.05;;;11.60;99.90;;;;;;6188282;23;20583;-79
2022/10/01 01:07:15;;;;;;;6.70;5.57;;;11.60;99.90;;;;;;6187698;23;20093;-80
2022/10/01 01:09:50;;;;;;;6.15;5.10;;;11.60;99.90;;;;;;6186395;23;20031;-80
2022/10/01 01:12:34;;;;;;;7.97;4.90;;;11.60;99.90;;;;;;6188082;23;20030;-78
2022/10/01 01:15:03;;;;;;;7.25;5.72;;;11.60;99.90;;;;;;6188004;23;20016;-81
2022/10/01 01:17:39;;;;;;;9.25;4.97;;;11.70;99.90;;;;;;6189120;23;20471;-79
2022/10/01 01:20:29;;;;;;;6.63;5.50;;;11.70;99.90;;;;;;6212328;22;20459;-79
2022/10/01 01:23:14;;;;;;;6.93;5.38;;;11.70;99.90;;;;;;6188016;23;20336;-79
2022/10/01 01:26:03;;;;;;;4.93;4.43;;;11.70;99.90;;;;;;6160484;23;20470;-79
2022/10/01 01:28:38;;;;;;;5.93;4.10;;;11.60;99.90;;;;;;6210939;23;20008;-79
2022/10/01 01:31:13;;;;;;;6.00;4.03;;;11.70;99.90;;;;;;6185976;23;20029;-80
2022/10/01 01:33:42;;;;;;;7.22;5.03;;;11.70;99.90;;;;;;6212303;23;20030;-79
2022/10/01 01:36:18;;;;;;;6.57;4.50;;;11.70;99.90;;;;;;6185782;23;20016;-79
2022/10/01 01:39:05;;;;;;;5.43;4.50;;;11.70;99.90;;;;;;6212338;23;20095;-80
2022/10/01 01:41:36;;;;;;;4.88;4.43;;;11.70;99.90;;;;;;6184532;23;20103;-79
2022/10/01 01:44:07;;;;;;;5.85;4.60;;;11.70;99.90;;;;;;6186450;23;20114;-79
2022/10/01 01:46:36;;;;;;;4.55;3.80;;;11.70;99.90;;;;;;6185010;23;20117;-79
2022/10/01 01:49:04;;;;;;;6.13;4.00;;;11.70;99.90;;;;;;6187197;23;20016;-79
2022/10/01 01:51:44;;;;;;;5.18;3.33;;;11.70;99.90;;;;;;6186180;23;20102;-79
2022/10/01 01:54:10;;;;;;;4.57;3.35;;;11.80;99.90;;;;;;6212032;23;20038;-79
2022/10/01 01:56:36;;;;;;;4.57;2.90;;;11.80;99.90;;;;;;6211757;23;20374;-79
2022/10/01 01:59:02;;;;;;;4.55;3.30;;;11.80;99.90;;;;;;6211601;23;20024;-80
2022/10/01 02:01:42;;;;;;;4.15;2.80;;;11.90;99.90;;;;;;6185487;23;20024;-79
2022/10/01 02:04:18;;;;;;;5.78;3.15;;;11.90;99.90;;;;;;6185336;23;20012;-79
2022/10/01 02:07:00;;;;;;;4.20;2.67;;;11.90;99.90;;;;;;6211799;23;20046;-79
2022/10/01 02:10:07;;;;;;;3.67;2.50;;;11.90;99.90;;;;;;6187125;23;20355;-80
2022/10/01 02:12:38;;;;;;;4.25;2.25;;;11.90;99.90;;;;;;6209396;23;20077;-80
2022/10/01 02:15:10;;;;;;;4.75;2.38;;;12.00;99.90;;;;;;6212004;23;20095;-80
2022/10/01 02:17:51;;;;;;;3.30;2.30;;;12.00;99.90;;;;;;6185286;23;20099;-80
2022/10/01 02:20:34;;;;;;;2.95;2.10;;;12.00;99.90;;;;;;6210549;23;20027;-79
2022/10/01 02:23:04;;;;;;;3.63;2.00;;;12.00;99.90;;;;;;6185445;23;20024;-80
2022/10/01 02:25:43;;;;;;;2.70;2.20;;;12.00;99.90;;;;;;6209821;23;20017;-80
2022/10/01 02:28:14;;;;;;;2.83;1.92;;;12.00;99.90;;;;;;6183340;23;20024;-80
2022/10/01 02:30:42;;;;;;;4.72;2.03;;;12.00;99.90;;;;;;6185654;23;20070;-80
2022/10/01 02:33:12;;;;;;;3.20;1.80;;;12.00;99.90;;;;;;6208993;23;20024;-81
2022/10/01 02:35:41;;;;;;;2.25;1.70;;;12.10;99.90;;;;;;6210967;23;20100;-81
2022/10/01 02:38:09;;;;;;;2.33;1.75;;;12.10;99.90;;;;;;6185038;23;20376;-80
2022/10/01 02:40:39;;;;;;;2.20;1.30;;;12.10;99.90;;;;;;6183896;23;20538;-81
2022/10/01 02:43:15;;;;;;;2.63;1.45;;;12.20;99.90;;;;;;6185718;23;20035;-80
2022/10/01 02:45:46;;;;;;;2.47;1.83;;;12.10;99.90;;;;;;6186484;23;20082;-80
2022/10/01 02:48:16;;;;;;;1.98;1.52;;;12.10;99.90;;;;;;6184434;23;20024;-80
2022/10/01 02:50:56;;;;;;;2.20;1.30;;;12.10;99.90;;;;;;6160356;23;20020;-79
2022/10/01 02:53:26;;;;;;;2.10;1.58;;;12.10;99.90;;;;;;6209985;23;20012;-79
2022/10/01 02:55:53;;;;;;;2.53;1.33;;;12.10;99.90;;;;;;6184091;23;20048;-79
2022/10/01 02:58:19;;;;;;;2.65;1.77;;;12.10;99.90;;;;;;6134888;23;20019;-78
2022/10/01 03:00:45;;;;;;;3.05;1.60;;;12.10;99.90;;;;;;6183807;23;20131;-79
2022/10/01 03:03:11;;;;;;;2.53;1.77;;;12.10;99.90;;;;;;6185221;23;20079;-79
2022/10/01 03:05:37;;;;;;;2.55;1.63;;;12.10;99.90;;;;;;6184286;23;20074;-79
2022/10/01 03:08:02;;;;;;;1.90;1.60;;;12.10;99.90;;;;;;6160878;23;20407;-79
2022/10/01 03:10:28;;;;;;;2.67;2.00;;;12.20;99.90;;;;;;6160380;23;20024;-79
2022/10/01 03:12:54;;;;;;;3.08;2.05;;;12.20;99.90;;;;;;6211133;23;20020;-78
2022/10/01 03:15:20;;;;;;;3.63;2.30;;;12.20;99.90;;;;;;6185628;23;20020;-79
2022/10/01 03:17:50;;;;;;;2.85;2.20;;;12.20;99.90;;;;;;6210932;23;20120;-80
2022/10/01 03:20:17;;;;;;;4.05;2.45;;;12.20;99.90;;;;;;6210393;23;20020;-80
2022/10/01 03:22:46;;;;;;;2.70;2.35;;;12.20;99.90;;;;;;6186593;23;20486;-79
2022/10/01 03:25:13;;;;;;;3.95;2.35;;;11.30;99.90;;;;;;6211020;23;20039;-79
2022/10/01 03:27:38;;;;;;;4.00;2.42;;;12.20;99.90;;;;;;6185873;23;20023;-79
2022/10/01 03:30:05;;;;;;;4.57;2.17;;;12.30;99.90;;;;;;6187230;23;20020;-79
2022/10/01 03:32:31;;;;;;;3.97;2.42;;;12.30;99.90;;;;;;6162319;23;20016;-80
2022/10/01 03:34:58;;;;;;;3.47;2.38;;;12.30;99.90;;;;;;6188566;23;20026;-80
2022/10/01 03:37:24;;;;;;;4.28;2.13;;;12.30;99.90;;;;;;6187663;23;20055;-79
2022/10/01 03:39:50;;;;;;;4.10;2.20;;;12.40;99.90;;;;;;6187551;23;20091;-80
2022/10/01 03:42:15;;;;;;;3.20;2.40;;;12.40;99.90;;;;;;6213518;23;20503;-79
2022/10/01 03:44:41;;;;;;;3.25;2.15;;;12.40;99.90;;;;;;6212080;23;20094;-80
2022/10/01 03:47:08;;;;;;;4.82;2.33;;;12.40;99.90;;;;;;6188033;23;20024;-79
2022/10/01 03:49:34;;;;;;;4.53;2.10;;;12.40;99.90;;;;;;6212493;23;20099;-79
2022/10/01 03:52:03;;;;;;;5.57;2.17;;;12.40;99.90;;;;;;6188128;23;20048;-79
2022/10/01 03:54:30;;;;;;;3.53;2.10;;;12.50;99.90;;;;;;6187654;23;20023;-80
2022/10/01 03:56:55;;;;;;;4.47;2.38;;;12.50;99.90;;;;;;6161762;23;20023;-80
2022/10/01 03:59:21;;;;;;;2.97;2.15;;;12.50;99.90;;;;;;6161996;23;20039;-79
2022/10/01 04:01:47;;;;;;;4.55;2.30;;;12.50;99.90;;;;;;6186756;23;20031;-79
2022/10/01 04:04:13;;;;;;;4.50;1.92;;;12.50;99.90;;;;;;6161592;23;20019;-80
2022/10/01 04:06:39;;;;;;;4.20;2.10;;;12.50;99.90;;;;;;6161969;23;20016;-80
2022/10/01 04:09:06;;;;;;;3.58;1.95;;;12.50;99.90;;;;;;6161503;23;20016;-80
2022/10/01 04:11:31;;;;;;;4.45;1.98;;;12.50;99.90;;;;;;6210547;23;20016;-79
2022/10/01 04:13:57;;;;;;;4.10;2.45;;;12.50;99.90;;;;;;6185483;23;20016;-79
2022/10/01 04:16:24;;;;;;;4.68;2.25;;;12.50;99.90;;;;;;6161412;23;20107;-80
2022/10/01 04:18:50;;;;;;;3.67;2.20;;;12.60;99.90;;;;;;6186375;23;20024;-80
2022/10/01 04:21:15;;;;;;;8.18;2.30;;;12.60;99.90;;;;;;6186679;23;20112;-79
2022/10/01 04:23:41;;;;;;;5.22;2.10;;;12.60;99.90;;;;;;6185620;23;20021;-80
2022/10/01 04:26:07;;;;;;;7.95;2.28;;;12.60;99.90;;;;;;6186732;23;20078;-80
2022/10/01 04:28:34;;;;;;;7.10;2.33;;;12.70;99.90;;;;;;6210588;23;20412;-80
2022/10/01 04:33:44;;;;;;;6.78;2.20;;;12.80;99.90;;;;;;6190055;23;20529;-79
2022/10/01 04:36:10;;;;;;;9.20;1.98;;;12.80;99.90;;;;;;6210920;23;20020;-79
2022/10/01 04:38:36;;;;;;;9.43;2.20;;;12.90;99.90;;;;;;6209590;23;20076;-79
2022/10/01 04:41:02;;;;;;;11.00;2.25;;;13.00;99.90;;;;;;6160987;23;20526;-79
2022/10/01 04:43:28;;;;;;;9.00;2.13;;;13.00;99.90;;;;;;6186431;23;20078;-79
2022/10/01 04:45:54;;;;;;;11.57;2.63;;;13.10;99.90;;;;;;6187095;23;20028;-79
2022/10/01 04:48:20;;;;;;;10.25;2.25;;;13.10;99.90;;;;;;6188807;23;20739;-78
2022/10/01 04:50:46;;;;;;;12.63;2.85;;;13.10;99.90;;;;;;6212355;23;20374;-78
2022/10/01 04:53:12;;;;;;;16.55;2.70;;;13.20;99.90;;;;;;6188397;23;20020;-79
2022/10/01 04:55:38;;;;;;;9.80;2.90;;;13.30;99.90;;;;;;6211797;23;20016;-79
2022/10/01 04:58:03;;;;;;;15.55;2.50;;;13.30;99.90;;;;;;6188687;23;20020;-79
2022/10/01 05:00:29;;;;;;;17.00;3.33;;;13.40;99.90;;;;;;6161993;23;20053;-79
2022/10/01 05:02:55;;;;;;;13.98;2.58;;;13.40;99.90;;;;;;6187417;23;20414;-79
2022/10/01 05:05:23;;;;;;;16.83;3.30;;;13.40;99.90;;;;;;6212299;23;20332;-79
2022/10/01 05:07:49;;;;;;;17.08;2.92;;;13.40;99.90;;;;;;6212493;23;20016;-79
2022/10/01 05:10:20;;;;;;;18.60;3.25;;;13.50;99.90;;;;;;6211786;23;20090;-80
2022/10/01 05:12:47;;;;;;;18.77;3.40;;;13.50;99.90;;;;;;6186966;23;20219;-80
2022/10/01 05:15:13;;;;;;;15.60;2.92;;;13.50;99.90;;;;;;6162322;23;20015;-79
2022/10/01 05:17:39;;;;;;;14.50;2.83;;;13.60;99.90;;;;;;6211537;23;20456;-79
2022/10/01 05:20:07;;;;;;;20.15;3.28;;;13.60;99.90;;;;;;6161587;23;20059;-80
2022/10/01 05:22:33;;;;;;;12.55;2.97;;;13.60;99.90;;;;;;6187092;23;20027;-79
2022/10/01 05:24:59;;;;;;;14.98;3.15;;;13.60;99.90;;;;;;6187779;23;20074;-80
2022/10/01 05:27:29;;;;;;;11.77;2.67;;;13.60;99.90;;;;;;6212127;23;20051;-79
2022/10/01 05:29:56;;;;;;;13.38;2.80;;;13.30;99.90;;;;;;6186641;23;20035;-80
2022/10/01 05:32:22;;;;;;;19.30;3.10;;;13.60;99.90;;;;;;6162700;23;20039;-79
2022/10/01 05:34:48;;;;;;;12.52;3.05;;;13.60;99.90;;;;;;6186853;23;20020;-80
2022/10/01 05:37:14;;;;;;;11.85;3.17;;;13.60;99.90;;;;;;6211440;23;20031;-79
2022/10/01 05:39:40;;;;;;;13.80;2.42;;;13.50;99.90;;;;;;6211626;23;20020;-79
2022/10/01 05:42:06;;;;;;;13.77;2.85;;;13.60;99.90;;;;;;6186850;23;20039;-79
2022/10/01 05:44:36;;;;;;;15.13;2.47;;;13.50;99.90;;;;;;6186309;23;20023;-79
2022/10/01 05:47:04;;;;;;;12.30;2.35;;;13.50;99.90;;;;;;6212568;23;20012;-79
2022/10/01 05:49:30;;;;;;;14.20;2.90;;;13.50;99.90;;;;;;6211958;23;20055;-79
2022/10/01 05:51:57;;;;;;;10.05;2.40;;;13.50;99.90;;;;;;6211506;23;20020;-79
2022/10/01 05:54:23;;;;;;;12.63;2.38;;;13.50;99.90;;;;;;6187156;23;20095;-79
2022/10/01 05:56:49;;;;;;;15.02;3.42;;;13.50;99.90;;;;;;6186124;23;20066;-79
2022/10/01 05:59:15;;;;;;;13.35;2.40;;;13.40;99.90;;;;;;6161778;23;20031;-79
2022/10/01 06:01:41;;;;;;;12.55;2.40;;;13.40;99.90;;;;;;6186246;23;20355;-79
2022/10/01 06:04:09;;;;;;;11.85;2.38;;;13.40;99.90;;;;;;6186400;23;20103;-79
2022/10/01 06:06:35;;;;;;;10.98;2.05;;;13.40;99.90;;;;;;6186893;23;20020;-79
2022/10/01 06:09:01;;;;;;;12.85;2.70;;;13.30;99.90;;;;;;6162249;23;20026;-79
2022/10/01 06:11:26;;;;;;;11.35;2.03;;;13.30;99.90;;;;;;6186696;23;20031;-79
2022/10/01 06:13:52;;;;;;;11.65;2.33;;;13.30;99.90;;;;;;6161504;23;20052;-80
2022/10/01 06:16:19;;;;;;;10.45;2.13;;;13.30;99.90;;;;;;6160716;23;20047;-79
2022/10/01 06:18:47;;;;;;;11.30;2.67;;;13.30;99.90;;;;;;6211450;23;20019;-79
2022/10/01 06:21:13;;;;;;;10.60;2.42;;;13.30;99.90;;;;;;6162254;23;20023;-78
2022/10/01 06:23:39;;;;;;;15.07;2.78;;;13.30;99.90;;;;;;6164361;23;20027;-79
2022/10/01 06:26:05;;;;;;;12.55;2.60;;;13.30;99.90;;;;;;6186830;23;20065;-79
2022/10/01 06:28:31;;;;;;;16.05;2.20;;;13.30;99.90;;;;;;6212102;23;20031;-78
2022/10/01 06:31:00;;;;;;;10.38;2.25;;;13.30;99.90;;;;;;6185563;23;20062;-78
2022/10/01 06:33:26;;;;;;;12.95;2.30;;;12.20;99.90;;;;;;6210911;23;20035;-79
2022/10/01 06:35:52;;;;;;;11.98;2.35;;;13.30;99.90;;;;;;6161878;23;20024;-79
2022/10/01 06:38:20;;;;;;;16.08;2.53;;;13.30;99.90;;;;;;6190901;23;20016;-80
2022/10/01 06:40:53;;;;;;;11.73;2.55;;;13.30;99.90;;;;;;6213852;23;20099;-78
2022/10/01 06:43:19;;;;;;;12.52;2.92;;;13.30;99.90;;;;;;6190142;23;20092;-79
2022/10/01 06:45:44;;;;;;;12.82;3.28;;;13.30;99.90;;;;;;6213902;23;20467;-79
2022/10/01 06:48:15;;;;;;;14.52;2.45;;;13.30;99.90;;;;;;6164371;23;20020;-78
2022/10/01 06:50:42;;;;;;;12.88;2.55;;;13.20;99.90;;;;;;6187967;23;20031;-78
2022/10/01 06:53:09;;;;;;;13.55;2.28;;;13.20;99.90;;;;;;6163652;23;20024;-79
2022/10/01 06:55:35;;;;;;;8.65;2.45;;;13.20;99.90;;;;;;6163951;23;20052;-78
2022/10/01 06:58:03;;;;;;;8.13;2.58;;;13.30;99.90;;;;;;6187390;23;20451;-78
2022/10/01 07:00:32;;;;;;;7.90;2.03;;;13.30;99.90;;;;;;6184872;23;20027;-79
2022/10/01 07:02:59;;;;;;;11.80;2.47;;;13.40;99.90;;;;;;6210371;23;20013;-80
2022/10/01 07:05:25;;;;;;;10.75;2.58;;;13.40;99.90;;;;;;6186647;23;20754;-80
2022/10/01 07:07:52;;;;;;;10.20;2.33;;;13.40;99.90;;;;;;6210625;23;20031;-79
2022/10/01 07:10:20;;;;;;;10.27;2.15;;;13.50;99.90;;;;;;6187864;23;20456;-83
2022/10/01 07:12:49;;;;;;;12.20;2.72;;;13.60;99.90;;;;;;6213753;23;20020;-80
2022/10/01 07:15:18;;;;;;;11.48;2.20;;;13.60;99.90;;;;;;6162378;23;20020;-79
2022/10/01 07:17:49;;;;;;;13.25;2.35;;;13.60;99.90;;;;;;6187771;23;20055;-81
2022/10/01 07:20:16;;;;;;;14.05;3.17;;;13.70;99.90;;;;;;6212997;23;20027;-81
2022/10/01 07:22:43;;;;;;;13.23;2.67;;;13.10;99.90;;;;;;6211048;23;20035;-82
2022/10/01 07:25:09;;;;;;;13.85;3.03;;;14.00;99.90;;;;;;6160635;23;20021;-83
2022/10/01 07:27:36;;;;;;;15.88;3.00;;;14.10;99.90;;;;;;6210398;23;20020;-83
2022/10/01 07:30:01;;;;;;;13.65;2.53;;;14.20;99.90;;;;;;6209655;23;20012;-84
2022/10/01 07:32:30;;;;;;;13.32;2.42;;;14.20;99.90;;;;;;6210780;23;20048;-83
2022/10/01 07:34:57;;;;;;;13.00;2.60;;;14.00;99.90;;;;;;6184840;23;20383;-83
2022/10/01 07:37:25;;;;;;;12.55;2.70;;;14.30;99.90;;;;;;6210271;23;20031;-80
2022/10/01 07:39:51;;;;;;;13.75;2.67;;;14.30;99.90;;;;;;6160659;23;20016;-80
2022/10/01 07:42:17;;;;;;;10.68;2.75;;;14.30;99.90;;;;;;6136379;23;20027;-81
2022/10/01 07:44:43;;;;;;;11.63;2.65;;;14.30;99.90;;;;;;6185087;23;20016;-82
2022/10/01 07:47:09;;;;;;;14.20;2.40;;;14.20;99.90;;;;;;6185192;23;20042;-81
2022/10/01 07:49:34;;;;;;;14.57;2.85;;;14.10;99.90;;;;;;6185899;23;20020;-80
2022/10/01 07:52:00;;;;;;;15.40;3.47;;;14.00;99.90;;;;;;6184678;23;20130;-79
2022/10/01 07:54:26;;;;;;;22.02;3.45;;;13.80;99.90;;;;;;6186233;23;20073;-80
2022/10/01 07:56:54;;;;;;;9.35;2.63;;;13.70;99.90;;;;;;6136180;23;20471;-79
2022/10/01 07:59:25;;;;;;;12.80;2.58;;;13.50;99.90;;;;;;6161417;23;20024;-79
2022/10/01 08:01:51;;;;;;;16.65;2.70;;;13.40;99.90;;;;;;6161381;23;20012;-79
2022/10/01 08:07:07;;;;;;;10.32;2.30;;;13.30;99.90;;;;;;6209973;23;20024;-80
2022/10/01 08:09:33;;;;;;;8.27;1.63;;;13.40;99.90;;;;;;6185952;23;20339;-80
2022/10/01 08:11:59;;;;;;;5.57;1.23;;;13.50;99.90;;;;;;6212650;23;20023;-79
2022/10/01 08:14:25;;;;;;;5.03;1.50;;;13.70;99.90;;;;;;6212716;23;20024;-79
2022/10/01 08:16:53;;;;;;;4.75;1.40;;;13.80;99.90;;;;;;6187171;23;20012;-80
2022/10/01 08:19:20;;;;;;;7.68;1.40;;;13.70;99.90;;;;;;6212298;23;20562;-79
2022/10/01 08:21:46;;;;;;;9.75;1.70;;;13.70;99.90;;;;;;6162782;23;20036;-80
2022/10/01 08:24:11;;;;;;;5.63;1.17;;;13.70;99.90;;;;;;6212671;23;20721;-79
2022/10/01 08:26:37;;;;;;;6.50;1.67;;;13.70;99.90;;;;;;6163495;23;20020;-80
2022/10/01 08:29:03;;;;;;;5.63;1.35;;;13.80;99.90;;;;;;6212332;23;20020;-79
2022/10/01 08:31:29;;;;;;;6.93;1.70;;;14.00;99.90;;;;;;6213342;23;20027;-80
2022/10/01 08:33:56;;;;;;;5.38;1.52;;;14.20;99.90;;;;;;6162791;23;20047;-79
2022/10/01 08:36:22;;;;;;;6.88;1.50;;;14.40;99.90;;;;;;6213100;23;20031;-80
2022/10/01 08:38:47;;;;;;;7.53;1.90;;;14.60;99.90;;;;;;6212157;23;20020;-80
2022/10/01 08:41:36;;;;;;;8.00;2.13;;;14.80;99.90;;;;;;6187373;23;20016;-80
2022/10/01 08:44:05;;;;;;;7.70;1.90;;;14.80;99.90;;;;;;6212247;23;20396;-80
2022/10/01 08:46:34;;;;;;;10.50;1.88;;;15.10;99.90;;;;;;6187857;23;20101;-80
2022/10/01 08:49:24;;;;;;;8.95;1.75;;;15.30;99.90;;;;;;6212652;23;20066;-80
2022/10/01 08:52:05;;;;;;;11.75;2.75;;;15.60;99.90;;;;;;6187280;23;20012;-79
2022/10/01 08:54:53;;;;;;;11.90;2.05;;;15.70;99.90;;;;;;6212300;23;20019;-80
2022/10/01 08:57:29;;;;;;;7.40;2.20;;;15.50;99.90;;;;;;6187746;23;20020;-80
2022/10/01 09:00:03;;;;;;;14.35;3.05;;;15.20;99.90;;;;;;6211245;23;20019;-80
2022/10/01 09:02:37;;;;;;;12.02;2.10;;;15.10;99.90;;;;;;6187466;23;20082;-80
2022/10/01 09:05:05;;;;;;;13.70;2.33;;;14.90;99.90;;;;;;6188510;23;20321;-80
2022/10/01 09:07:56;;;;;;;15.50;2.63;;;14.90;99.90;;;;;;6187960;23;20356;-80
2022/10/01 09:10:31;;;;;;;9.95;2.38;;;14.80;99.90;;;;;;6211356;23;20098;-80
2022/10/01 09:12:56;;;;;;;12.40;2.42;;;14.70;99.90;;;;;;6214798;23;20103;-79
2022/10/01 09:15:31;;;;;;;11.55;2.20;;;14.50;99.90;;;;;;6212553;23;20589;-80
2022/10/01 09:18:05;;;;;;;16.58;2.88;;;14.30;99.90;;;;;;6212151;23;20343;-80
2022/10/01 09:20:35;;;;;;;15.85;3.55;;;14.00;99.90;;;;;;6186565;23;20099;-80
2022/10/01 09:23:24;;;;;;;25.33;3.53;;;13.90;99.90;;;;;;6187471;23;20108;-80
2022/10/01 09:25:51;;;;;;;20.85;3.90;;;13.80;99.90;;;;;;6212026;23;20022;-81
2022/10/01 09:28:21;;;;;;;18.73;3.13;;;13.90;99.90;;;;;;6161436;23;20028;-80
2022/10/01 09:31:13;;;;;;;12.07;2.42;;;14.00;99.90;;;;;;6211425;23;20027;-80
2022/10/01 09:33:48;;;;;;;18.50;2.72;;;14.10;99.90;;;;;;6191712;23;20116;-81
2022/10/01 09:36:33;;;;;;;11.27;2.30;;;14.40;99.90;;;;;;6211842;23;20023;-80
2022/10/01 09:39:27;;;;;;;13.48;2.97;;;14.70;99.90;;;;;;6210216;23;20343;-80
2022/10/01 09:41:53;;;;;;;15.38;2.33;;;15.10;99.90;;;;;;6186237;23;20022;-81
2022/10/01 09:44:37;;;;;;;7.57;1.70;;;15.20;99.90;;;;;;6211526;23;20020;-81
2022/10/01 09:47:12;;;;;;;13.02;2.08;;;15.20;99.90;;;;;;6186088;23;20124;-80
2022/10/01 09:49:39;;;;;;;12.53;2.33;;;15.10;99.90;;;;;;6211551;23;20020;-81
2022/10/01 09:52:14;;;;;;;18.15;2.67;;;15.00;99.90;;;;;;6187166;23;20012;-80
2022/10/01 09:54:52;;;;;;;11.93;2.53;;;14.90;99.90;;;;;;6212376;23;20016;-80
2022/10/01 09:57:20;;;;;;;11.63;2.35;;;14.70;99.90;;;;;;6212003;23;20317;-80
2022/10/01 09:59:54;;;;;;;12.32;2.55;;;14.60;99.90;;;;;;6185857;23;20028;-81
2022/10/01 10:02:41;;;;;;;13.23;2.42;;;14.50;99.90;;;;;;6212080;23;20016;-81
2022/10/01 10:05:16;;;;;;;16.88;2.20;;;14.40;99.90;;;;;;6186150;23;20102;-81
2022/10/01 10:07:51;;;;;;;12.90;2.25;;;14.30;99.90;;;;;;6211920;23;20070;-80
2022/10/01 10:10:26;;;;;;;10.95;2.65;;;14.20;99.90;;;;;;6210885;23;20047;-80
2022/10/01 10:13:09;;;;;;;13.70;2.33;;;14.30;99.90;;;;;;6189330;23;20016;-80
2022/10/01 10:15:40;;;;;;;10.15;2.15;;;14.40;99.90;;;;;;6211482;23;20078;-80
2022/10/01 10:18:16;;;;;;;9.93;2.30;;;14.60;99.90;;;;;;6186431;23;20027;-81
2022/10/01 10:20:52;;;;;;;11.18;2.40;;;14.80;99.90;;;;;;6211897;23;20020;-81
2022/10/01 10:23:18;;;;;;;;;;;15.10;99.90;;;;;;6213038;23;20055;-80
2022/10/01 10:26:02;;;;;;;9.52;2.13;;;15.20;99.90;;;;;;6212439;23;19919;-80
2022/10/01 10:28:41;;;;;;;6.60;2.00;;;15.30;99.90;;;;;;6211688;23;20019;-81
2022/10/01 10:31:19;;;;;;;9.63;2.25;;;15.50;99.90;;;;;;6210895;23;20102;-81
2022/10/01 10:34:10;;;;;;;12.73;1.98;;;15.60;99.90;;;;;;6187206;23;20078;-80
2022/10/01 10:36:36;;;;;;;7.95;2.20;;;15.70;99.90;;;;;;6186144;23;20020;-81
2022/10/01 10:39:05;;;;;;;9.60;2.13;;;15.80;99.90;;;;;;6184814;23;20012;-81
2022/10/01 10:41:33;;;;;;;13.45;2.53;;;15.90;99.90;;;;;;6186426;23;20016;-80
2022/10/01 10:44:03;;;;;;;12.18;2.83;;;16.10;99.90;;;;;;6161671;23;20450;-81
2022/10/01 10:46:36;;;;;;;9.10;2.10;;;16.40;99.90;;;;;;6186485;23;20023;-81
2022/10/01 10:49:07;;;;;;;10.23;2.25;;;16.30;99.90;;;;;;6211296;23;20016;-81
2022/10/01 10:51:44;;;;;;;9.50;2.53;;;16.70;99.90;;;;;;6187165;23;20405;-81
2022/10/01 10:54:18;;;;;;;7.00;1.80;;;16.90;99.90;;;;;;6210906;23;20055;-80
2022/10/01 10:57:01;;;;;;;10.07;1.92;;;16.90;99.90;;;;;;6212362;23;20024;-80
2022/10/01 10:59:33;;;;;;;8.48;2.08;;;16.80;99.90;;;;;;6210636;23;20016;-80
2022/10/01 11:02:01;;;;;;;10.00;1.88;;;16.70;99.90;;;;;;6211301;23;20073;-80
2022/10/01 11:04:43;;;;;;;8.20;2.30;;;16.60;99.90;;;;;;6186323;23;20020;-80
2022/10/01 11:07:12;;;;;;;12.20;1.80;;;16.60;99.90;;;;;;6184215;23;20020;-79
2022/10/01 11:09:56;;;;;;;10.05;2.00;;;16.50;99.90;;;;;;6183615;23;20020;-81
2022/10/01 11:13:00;;;;;;;6.88;1.65;;;16.30;99.90;;;;;;6184079;23;20436;-80
2022/10/01 11:16:04;;;;;;;10.95;2.13;;;16.20;99.90;;;;;;6209191;23;20305;-81
2022/10/01 11:18:49;;;;;;;8.32;2.00;;;16.60;99.90;;;;;;6202437;23;20016;-82
2022/10/01 11:21:30;;;;;;;8.60;1.55;;;17.00;99.90;;;;;;6182802;23;20064;-81
2022/10/01 11:24:09;;;;;;;8.07;1.92;;;17.50;99.90;;;;;;6183634;23;20408;-79
2022/10/01 11:26:52;;;;;;;9.57;2.00;;;17.80;99.90;;;;;;6182274;23;20016;-80
2022/10/01 11:29:34;;;;;;;12.27;2.72;;;18.20;99.90;;;;;;6182344;23;20028;-84
2022/10/01 11:32:24;;;;;;;9.20;2.60;;;18.20;99.90;;;;;;6182248;23;20031;-84
2022/10/01 11:35:15;;;;;;;9.50;2.13;;;17.90;99.90;;;;;;6180302;23;20016;-82
2022/10/01 11:38:12;;;;;;;8.43;2.58;;;17.70;99.90;;;;;;6205579;23;20050;-80
2022/10/01 11:40:44;;;;;;;12.13;2.83;;;18.10;99.90;;;;;;6207187;23;20016;-81
2022/10/01 11:43:33;;;;;;;11.95;2.78;;;19.20;99.90;;;;;;6183241;23;20068;-80
2022/10/01 11:46:37;;;;;;;12.98;2.83;;;20.20;99.90;;;;;;6184080;23;20106;-81
2022/10/01 11:49:22;;;;;;;11.10;2.30;;;20.80;99.90;;;;;;6149472;23;20028;-81
2022/10/01 11:52:09;;;;;;;11.43;2.30;;;21.20;99.90;;;;;;6186793;23;20024;-81
2022/10/01 11:54:41;;;;;;;10.00;2.10;;;21.30;99.90;;;;;;6185449;23;20016;-81
2022/10/01 12:00:05;;;;;;;8.95;2.00;;;20.90;99.90;;;;;;6210245;23;20024;-81
2022/10/01 12:02:40;;;;;;;11.07;2.40;;;20.70;99.90;;;;;;6185940;23;20147;-81
2022/10/01 12:05:15;;;;;;;12.05;2.10;;;20.60;99.90;;;;;;6210767;23;20031;-80
2022/10/01 12:07:50;;;;;;;5.65;1.50;;;19.40;99.90;;;;;;6185664;23;20383;-81
2022/10/01 12:10:32;;;;;;;4.65;1.20;;;18.40;99.90;;;;;;6210321;23;20020;-81
2022/10/01 12:13:19;;;;;;;7.65;1.60;;;17.80;99.90;;;;;;6186014;23;20020;-79
2022/10/01 12:15:51;;;;;;;15.13;2.90;;;17.80;99.90;;;;;;6185320;23;20020;-79
2022/10/01 12:18:39;;;;;;;18.88;2.70;;;17.70;99.90;;;;;;6211474;23;20031;-80
2022/10/01 12:21:19;;;;;;;15.40;2.80;;;17.50;99.90;;;;;;6184982;23;20107;-79
2022/10/01 12:23:51;;;;;;;10.23;2.97;;;17.50;99.90;;;;;;6184523;23;20255;-80
2022/10/01 12:26:45;;;;;;;10.45;2.42;;;18.00;99.90;;;;;;6207527;23;20091;-80
2022/10/01 12:29:43;;;;;;;7.18;1.77;;;18.80;99.90;;;;;;6184501;23;20342;-81
2022/10/01 12:32:17;;;;;;;4.60;1.38;;;19.90;99.90;;;;;;6184736;23;20060;-81
2022/10/01 12:34:54;;;;;;;4.88;1.52;;;20.30;99.90;;;;;;6211045;23;20082;-81
2022/10/01 12:37:26;;;;;;;8.23;1.80;;;20.60;99.90;;;;;;6183653;23;20023;-81
2022/10/01 12:40:19;;;;;;;9.70;1.98;;;20.60;99.90;;;;;;6183829;23;20024;-81
2022/10/01 12:43:20;;;;;;;14.95;2.50;;;20.60;99.90;;;;;;6207261;23;20024;-84
2022/10/01 12:46:16;;;;;;;14.13;2.75;;;20.60;99.90;;;;;;6060551;23;20027;-81
2022/10/01 12:49:12;;;;;;;13.40;3.07;;;20.60;99.90;;;;;;6183658;23;20459;-81
2022/10/01 12:51:45;;;;;;;16.37;2.87;;;20.50;99.90;;;;;;6210369;23;20012;-80
2022/10/01 12:54:42;;;;;;;9.73;2.15;;;20.50;99.90;;;;;;6212498;23;20296;-82
2022/10/01 12:57:48;;;;;;;10.88;2.38;;;20.50;99.90;;;;;;6214540;23;20356;-81
2022/10/01 13:00:23;;;;;;;10.05;2.65;;;20.30;99.90;;;;;;6189327;23;20052;-80
2022/10/01 13:03:23;;;;;;;9.30;2.10;;;20.10;99.90;;;;;;6190365;23;20020;-80
2022/10/01 13:05:58;;;;;;;7.88;2.20;;;20.20;99.90;;;;;;6215437;23;20016;-80
2022/10/01 13:08:37;;;;;;;14.25;2.60;;;20.10;99.90;;;;;;6214661;23;20020;-80
2022/10/01 13:11:29;;;;;;;9.20;2.00;;;20.20;99.90;;;;;;6214658;23;20027;-81
2022/10/01 13:13:56;;;;;;;10.95;2.40;;;20.30;99.90;;;;;;6189767;23;20012;-80
2022/10/01 13:16:37;;;;;;;10.93;2.78;;;20.20;99.90;;;;;;6164720;23;20078;-81